createdAt,value
2019-05-25T00:01:36.149Z,22.80
2019-05-25T00:04:05.807Z,23.50
2019-05-25T00:06:35.182Z,22.43
2019-05-25T00:09:05.397Z,24.47
2019-05-25T00:11:34.630Z,23.10
2019-05-25T00:14:03.962Z,24.23
2019-05-25T00:16:33.818Z,23.27
2019-05-25T00:19:02.971Z,25.20
2019-05-25T00:21:32.289Z,23.27
2019-05-25T00:24:11.621Z,23.63
2019-05-25T00:26:32.588Z,23.53
2019-05-25T00:29:01.683Z,24.77
2019-05-25T00:31:30.700Z,25.40
2019-05-25T00:34:00.243Z,22.60
2019-05-25T00:36:29.661Z,23.10
2019-05-25T00:38:58.697Z,22.17
2019-05-25T00:41:27.777Z,23.57
2019-05-25T00:43:56.759Z,24.30
2019-05-25T00:46:27.512Z,23.50
2019-05-25T00:48:56.474Z,24.53
2019-05-25T00:51:27.084Z,23.20
2019-05-25T00:53:56.158Z,22.83
2019-05-25T00:56:25.202Z,22.37
2019-05-25T00:58:54.322Z,22.53
2019-05-25T01:01:24.530Z,23.63
2019-05-25T01:03:53.691Z,23.80
2019-05-25T01:06:22.746Z,24.63
2019-05-25T01:08:52.178Z,23.97
2019-05-25T01:11:21.584Z,23.70
2019-05-25T01:13:51.292Z,24.07
2019-05-25T01:16:20.318Z,22.27
2019-05-25T01:18:50.111Z,23.93
2019-05-25T01:21:19.148Z,23.90
2019-05-25T01:23:48.169Z,21.70
2019-05-25T01:26:17.226Z,23.43
2019-05-25T01:28:46.582Z,23.83
2019-05-25T01:31:15.655Z,23.50
2019-05-25T01:33:44.761Z,23.70
2019-05-25T01:36:13.792Z,21.63
2019-05-25T01:38:42.848Z,22.53
2019-05-25T01:41:11.899Z,23.77
2019-05-25T01:43:40.944Z,22.83
2019-05-25T01:46:10.268Z,24.40
2019-05-25T01:48:39.668Z,23.13
2019-05-25T01:51:09.100Z,22.70
2019-05-25T01:53:38.165Z,23.03
2019-05-25T01:56:07.539Z,23.53
2019-05-25T01:58:37.287Z,23.13
2019-05-25T02:01:07.082Z,22.57
2019-05-25T02:03:36.442Z,23.77
2019-05-25T02:06:05.493Z,22.90
2019-05-25T02:08:34.885Z,24.20
2019-05-25T02:11:03.941Z,23.23
2019-05-25T02:13:32.987Z,25.67
2019-05-25T02:16:02.011Z,25.60
2019-05-25T02:18:31.025Z,24.63
2019-05-25T02:21:00.197Z,23.53
2019-05-25T02:23:29.230Z,24.87
2019-05-25T02:25:58.628Z,23.53
2019-05-25T02:28:27.687Z,26.33
2019-05-25T02:30:57.116Z,25.03
2019-05-25T02:33:26.129Z,24.97
2019-05-25T02:35:55.184Z,25.43
2019-05-25T02:38:24.225Z,26.33
2019-05-25T02:40:53.283Z,25.23
2019-05-25T02:43:22.692Z,24.67
2019-05-25T02:45:52.103Z,25.40
2019-05-25T02:48:21.160Z,26.43
2019-05-25T02:50:53.017Z,27.43
2019-05-25T02:53:21.177Z,27.10
2019-05-25T02:55:50.240Z,27.83
2019-05-25T02:58:19.930Z,27.53
2019-05-25T03:00:48.972Z,27.40
2019-05-25T03:03:18.057Z,27.40
2019-05-25T03:05:47.526Z,28.47
2019-05-25T03:08:16.650Z,27.87
2019-05-25T03:10:45.845Z,29.80
2019-05-25T03:13:15.221Z,28.00
2019-05-25T03:15:44.278Z,29.07
2019-05-25T03:18:13.607Z,28.37
2019-05-25T03:20:42.687Z,28.93
2019-05-25T03:23:11.725Z,28.03
2019-05-25T03:25:49.716Z,28.50
2019-05-25T03:28:12.968Z,30.63
2019-05-25T03:30:42.062Z,29.20
2019-05-25T03:33:11.464Z,29.73
2019-05-25T03:35:40.895Z,31.23
2019-05-25T03:38:09.957Z,30.83
2019-05-25T03:40:39.002Z,29.43
2019-05-25T03:43:08.021Z,29.37
2019-05-25T03:45:37.353Z,30.90
2019-05-25T03:48:06.505Z,32.03
2019-05-25T03:50:35.555Z,29.40
2019-05-25T03:53:04.934Z,29.27
2019-05-25T03:55:34.266Z,29.17
2019-05-25T03:58:03.461Z,26.90
2019-05-25T04:00:36.730Z,30.10
2019-05-25T04:03:06.580Z,29.10
2019-05-25T04:05:35.636Z,27.73
2019-05-25T04:08:04.753Z,32.60
2019-05-25T04:10:33.793Z,29.73
2019-05-25T04:13:03.288Z,28.03
2019-05-25T04:15:32.369Z,29.80
2019-05-25T04:18:01.761Z,28.57
2019-05-25T04:20:31.258Z,29.20
2019-05-25T04:23:00.692Z,30.50
2019-05-25T04:25:30.131Z,30.87
2019-05-25T04:27:59.185Z,31.23
2019-05-25T04:30:28.540Z,30.40
2019-05-25T04:32:57.992Z,29.43
2019-05-25T04:35:27.033Z,30.80
2019-05-25T04:37:56.431Z,30.70
2019-05-25T04:40:25.549Z,27.67
2019-05-25T04:42:54.637Z,28.77
2019-05-25T04:45:23.640Z,27.80
2019-05-25T04:47:53.073Z,25.03
2019-05-25T04:50:22.108Z,25.20
2019-05-25T04:52:51.397Z,28.07
2019-05-25T04:55:20.485Z,27.13
2019-05-25T04:57:49.901Z,27.40
2019-05-25T05:00:18.948Z,25.30
2019-05-25T05:02:48.024Z,25.80
2019-05-25T05:05:17.135Z,25.57
2019-05-25T05:07:46.201Z,27.43
2019-05-25T05:10:15.279Z,27.80
2019-05-25T05:12:44.325Z,27.17
2019-05-25T05:15:13.389Z,26.00
2019-05-25T05:17:42.468Z,24.43
2019-05-25T05:20:11.602Z,26.53
2019-05-25T05:22:40.947Z,26.23
2019-05-25T05:25:10.863Z,26.83
2019-05-25T05:27:40.713Z,27.30
2019-05-25T05:30:09.889Z,26.77
2019-05-25T05:32:38.977Z,26.53
2019-05-25T05:35:09.232Z,28.27
2019-05-25T05:37:38.336Z,27.17
2019-05-25T05:40:08.256Z,27.67
2019-05-25T05:42:39.500Z,28.57
2019-05-25T05:45:09.452Z,28.97
2019-05-25T05:47:38.511Z,26.97
2019-05-25T05:50:08.962Z,27.90
2019-05-25T05:52:39.270Z,25.83
2019-05-25T05:55:10.038Z,24.73
2019-05-25T05:57:39.495Z,27.00
2019-05-25T06:00:10.604Z,26.93
2019-05-25T06:02:39.822Z,26.07
2019-05-25T06:05:09.385Z,27.50
2019-05-25T06:07:39.561Z,27.07
2019-05-25T06:10:09.663Z,25.40
2019-05-25T06:12:38.801Z,24.57
2019-05-25T06:15:08.059Z,26.90
2019-05-25T06:17:37.159Z,27.07
2019-05-25T06:20:07.192Z,28.87
2019-05-25T06:22:36.269Z,26.33
2019-05-25T06:25:06.414Z,26.60
2019-05-25T06:27:35.534Z,27.83
2019-05-25T06:30:05.854Z,27.07
2019-05-25T06:32:35.233Z,27.80
2019-05-25T06:35:05.047Z,26.53
2019-05-25T06:37:34.462Z,26.37
2019-05-25T06:40:03.934Z,27.20
2019-05-25T06:42:33.056Z,26.63
2019-05-25T06:45:02.495Z,26.90
2019-05-25T06:47:31.901Z,27.80
2019-05-25T06:50:00.945Z,29.17
2019-05-25T06:52:30.008Z,28.37
2019-05-25T06:54:59.079Z,27.40
2019-05-25T06:57:42.057Z,26.97
2019-05-25T06:59:58.926Z,26.10
2019-05-25T07:02:27.998Z,27.03
2019-05-25T07:04:57.011Z,29.57
2019-05-25T07:07:26.144Z,26.93
2019-05-25T07:09:55.210Z,26.40
2019-05-25T07:12:24.877Z,24.40
2019-05-25T07:14:54.030Z,24.17
2019-05-25T07:17:23.796Z,22.80
2019-05-25T07:19:52.832Z,24.10
2019-05-25T07:22:22.178Z,25.53
2019-05-25T07:24:51.364Z,24.03
2019-05-25T07:27:20.444Z,25.63
2019-05-25T07:29:49.817Z,22.37
2019-05-25T07:32:19.183Z,20.67
2019-05-25T07:34:48.551Z,26.33
2019-05-25T07:37:17.532Z,23.43
2019-05-25T07:39:46.563Z,21.33
2019-05-25T07:42:15.601Z,23.77
2019-05-25T07:44:44.705Z,24.03
2019-05-25T07:47:13.704Z,22.97
2019-05-25T07:49:43.139Z,24.73
2019-05-25T07:52:12.218Z,24.10
2019-05-25T07:54:42.177Z,25.10
2019-05-25T07:57:11.193Z,25.53
2019-05-25T07:59:40.199Z,22.03
2019-05-25T08:02:09.250Z,21.73
2019-05-25T08:04:38.672Z,24.93
2019-05-25T08:07:07.725Z,23.83
2019-05-25T08:09:37.144Z,23.27
2019-05-25T08:12:06.184Z,22.53
2019-05-25T08:14:35.382Z,23.83
2019-05-25T08:17:04.458Z,25.37
2019-05-25T08:19:33.965Z,22.00
2019-05-25T08:22:03.336Z,25.57
2019-05-25T08:24:32.779Z,21.93
2019-05-25T08:27:02.524Z,25.73
2019-05-25T08:29:31.545Z,24.90
2019-05-25T08:32:00.590Z,24.53
2019-05-25T08:34:29.604Z,25.47
2019-05-25T08:36:58.721Z,24.20
2019-05-25T08:39:27.788Z,24.77
2019-05-25T08:41:56.851Z,24.23
2019-05-25T08:44:25.899Z,23.77
2019-05-25T08:46:55.723Z,19.77
2019-05-25T08:49:24.928Z,23.90
2019-05-25T08:51:55.045Z,23.25
2019-05-25T08:54:24.151Z,22.75
2019-05-25T08:56:53.226Z,23.65
2019-05-25T08:59:22.952Z,26.97
2019-05-25T09:01:52.291Z,25.37
2019-05-25T09:04:21.345Z,26.00
2019-05-25T09:06:50.392Z,26.62
2019-05-25T09:09:19.473Z,27.50
2019-05-25T09:11:48.839Z,23.70
2019-05-25T09:14:18.391Z,26.17
2019-05-25T09:16:47.971Z,31.55
2019-05-25T09:19:17.049Z,29.10
2019-05-25T09:22:01.494Z,27.52
2019-05-25T09:24:17.243Z,29.10
2019-05-25T09:26:46.353Z,26.10
2019-05-25T09:29:15.805Z,31.25
2019-05-25T09:31:44.846Z,30.08
2019-05-25T09:34:14.258Z,32.23
2019-05-25T09:36:43.281Z,32.45
2019-05-25T09:39:12.353Z,36.05
2019-05-25T09:41:41.404Z,32.05
2019-05-25T09:44:10.740Z,31.45
2019-05-25T09:46:40.157Z,39.80
2019-05-25T09:49:09.278Z,40.60
2019-05-25T09:51:38.371Z,35.92
2019-05-25T09:54:07.381Z,39.67
2019-05-25T09:56:36.811Z,40.33
2019-05-25T09:59:19.139Z,38.73
2019-05-25T10:01:36.634Z,40.38
2019-05-25T10:04:05.761Z,45.58
2019-05-25T10:06:34.866Z,38.10
2019-05-25T10:09:05.426Z,41.73
2019-05-25T10:11:34.471Z,42.27
2019-05-25T10:14:03.560Z,38.85
2019-05-25T10:16:32.609Z,41.20
2019-05-25T10:19:01.689Z,39.45
2019-05-25T10:21:30.767Z,35.47
2019-05-25T10:23:59.784Z,39.45
2019-05-25T10:26:29.233Z,39.60
2019-05-25T10:28:58.290Z,41.68
2019-05-25T10:31:28.450Z,44.20
2019-05-25T10:33:57.485Z,40.20
2019-05-25T10:36:26.864Z,38.05
2019-05-25T10:38:55.911Z,35.88
2019-05-25T10:41:25.281Z,41.77
2019-05-25T10:43:54.336Z,41.95
2019-05-25T10:46:23.751Z,39.13
2019-05-25T10:48:52.774Z,36.08
2019-05-25T10:51:21.844Z,40.60
2019-05-25T10:53:50.920Z,38.65
2019-05-25T10:56:20.037Z,38.98
2019-05-25T10:58:49.080Z,36.45
2019-05-25T11:01:18.115Z,36.00
2019-05-25T11:03:47.340Z,29.35
2019-05-25T11:06:16.719Z,28.02
2019-05-25T11:08:45.827Z,25.88
2019-05-25T11:11:14.985Z,29.12
2019-05-25T11:13:44.075Z,25.70
2019-05-25T11:16:13.464Z,29.30
2019-05-25T11:18:42.480Z,27.20
2019-05-25T11:21:11.881Z,24.10
2019-05-25T11:23:41.079Z,25.90
2019-05-25T11:26:10.201Z,22.90
2019-05-25T11:28:39.581Z,24.85
2019-05-25T11:31:08.678Z,27.13
2019-05-25T11:33:38.005Z,25.20
2019-05-25T11:36:07.033Z,24.98
2019-05-25T11:38:36.055Z,25.68
2019-05-25T11:41:05.174Z,24.15
2019-05-25T11:43:34.515Z,22.95
2019-05-25T11:46:03.585Z,21.45
2019-05-25T11:48:32.601Z,20.45
2019-05-25T11:51:01.771Z,27.05
2019-05-25T11:53:30.860Z,27.13
2019-05-25T11:55:59.925Z,26.57
2019-05-25T11:58:28.975Z,19.07
2019-05-25T12:00:58.465Z,24.75
2019-05-25T12:03:27.489Z,28.17
2019-05-25T12:05:56.913Z,23.73
2019-05-25T12:08:26.419Z,26.42
2019-05-25T12:10:55.508Z,29.92
2019-05-25T12:13:24.550Z,28.42
2019-05-25T12:15:53.599Z,26.42
2019-05-25T12:18:22.892Z,23.70
2019-05-25T12:20:52.195Z,25.23
2019-05-25T12:23:21.605Z,26.23
2019-05-25T12:25:50.611Z,25.97
2019-05-25T12:28:20.025Z,26.07
2019-05-25T12:30:49.345Z,22.20
2019-05-25T12:33:22.077Z,26.75
2019-05-25T12:35:51.525Z,26.60
2019-05-25T12:38:22.557Z,24.67
2019-05-25T12:40:53.953Z,24.12
2019-05-25T12:43:22.771Z,22.05
2019-05-25T12:45:52.173Z,20.23
2019-05-25T12:48:21.284Z,24.55
2019-05-25T12:50:50.359Z,23.52
2019-05-25T12:53:19.407Z,24.32
2019-05-25T12:55:48.461Z,22.25
2019-05-25T12:58:17.885Z,22.70
2019-05-25T13:00:55.757Z,20.10
2019-05-25T13:03:17.673Z,18.07
2019-05-25T13:05:46.716Z,18.92
2019-05-25T13:08:16.039Z,19.57
2019-05-25T13:10:45.477Z,20.50
2019-05-25T13:13:14.508Z,17.25
2019-05-25T13:15:43.579Z,16.70
2019-05-25T13:18:12.634Z,16.27
2019-05-25T13:20:42.055Z,16.23
2019-05-25T13:23:11.098Z,11.15
2019-05-25T13:25:40.487Z,9.53
2019-05-25T13:28:09.678Z,9.48
2019-05-25T13:30:38.750Z,9.43
2019-05-25T13:33:08.086Z,9.10
2019-05-25T13:35:37.102Z,8.43
2019-05-25T13:38:06.130Z,7.90
2019-05-25T13:40:35.514Z,7.05
2019-05-25T13:43:04.552Z,5.87
2019-05-25T13:45:33.909Z,6.87
2019-05-25T13:48:02.930Z,6.65
2019-05-25T13:50:32.319Z,7.92
2019-05-25T13:53:01.383Z,8.60
2019-05-25T13:55:31.292Z,7.20
2019-05-25T13:58:00.349Z,5.95
2019-05-25T14:00:29.422Z,5.42
2019-05-25T14:02:58.853Z,5.50
2019-05-25T14:05:27.901Z,6.17
2019-05-25T14:07:57.048Z,6.53
2019-05-25T14:10:26.078Z,5.72
2019-05-25T14:12:55.108Z,6.08
2019-05-25T14:15:24.119Z,5.20
2019-05-25T14:17:53.236Z,3.50
2019-05-25T14:20:22.334Z,3.30
2019-05-25T14:22:51.346Z,3.60
2019-05-25T14:25:20.391Z,3.90
2019-05-25T14:27:49.459Z,3.37
2019-05-25T14:30:19.027Z,2.67
2019-05-25T14:32:48.057Z,2.62
2019-05-25T14:35:17.073Z,2.75
2019-05-25T14:37:46.133Z,2.60
2019-05-25T14:40:15.359Z,2.87
2019-05-25T14:42:44.383Z,2.83
2019-05-25T14:45:13.539Z,2.40
2019-05-25T14:47:42.569Z,2.62
2019-05-25T14:50:12.618Z,2.40
2019-05-25T14:52:43.415Z,8.05
2019-05-25T14:55:13.346Z,7.62
2019-05-25T14:57:42.391Z,2.40
2019-05-25T15:00:13.103Z,4.50
2019-05-25T15:02:42.892Z,1.60
2019-05-25T15:05:12.708Z,2.12
2019-05-25T15:07:41.734Z,2.75
2019-05-25T15:10:13.242Z,2.65
2019-05-25T15:12:42.320Z,2.80
2019-05-25T15:15:11.995Z,2.83
2019-05-25T15:17:43.169Z,2.87
2019-05-25T15:20:12.510Z,2.20
2019-05-25T15:22:41.595Z,2.52
2019-05-25T15:25:11.517Z,2.85
2019-05-25T15:27:41.107Z,3.27
2019-05-25T15:30:10.534Z,3.02
2019-05-25T15:32:39.543Z,3.00
2019-05-25T15:35:08.717Z,2.95
2019-05-25T15:37:37.755Z,2.72
2019-05-25T15:40:09.380Z,2.58
2019-05-25T15:42:39.250Z,2.20
2019-05-25T15:45:08.497Z,6.55
2019-05-25T15:47:37.557Z,3.90
2019-05-25T15:50:07.423Z,3.40
2019-05-25T15:52:36.473Z,3.00
2019-05-25T15:55:06.778Z,3.10
2019-05-25T15:57:36.180Z,2.80
2019-05-25T16:00:07.375Z,3.65
2019-05-25T16:02:37.206Z,3.00
2019-05-25T16:05:06.753Z,2.95
2019-05-25T16:07:38.061Z,2.92
2019-05-25T16:10:07.311Z,3.35
2019-05-25T16:12:36.651Z,3.12
2019-05-25T16:15:05.963Z,3.33
2019-05-25T16:17:35.003Z,2.80
2019-05-25T16:20:05.400Z,3.17
2019-05-25T16:22:34.745Z,3.10
2019-05-25T16:25:03.901Z,3.00
2019-05-25T16:27:33.937Z,3.00
2019-05-25T16:30:03.350Z,3.37
2019-05-25T16:32:32.680Z,3.15
2019-05-25T16:35:02.035Z,2.45
2019-05-25T16:37:31.238Z,3.00
2019-05-25T16:40:00.296Z,2.83
2019-05-25T16:42:29.639Z,2.42
2019-05-25T16:44:58.732Z,2.80
2019-05-25T16:47:28.403Z,2.72
2019-05-25T16:49:57.437Z,3.02
2019-05-25T16:52:26.766Z,2.80
2019-05-25T16:54:55.907Z,2.65
2019-05-25T16:57:25.661Z,2.42
2019-05-25T16:59:54.739Z,2.50
2019-05-25T17:02:24.066Z,2.90
2019-05-25T17:04:53.440Z,2.62
2019-05-25T17:07:22.505Z,2.58
2019-05-25T17:09:51.590Z,2.52
2019-05-25T17:12:20.665Z,2.65
2019-05-25T17:14:50.551Z,2.30
2019-05-25T17:17:20.398Z,2.87
2019-05-25T17:19:49.471Z,3.08
2019-05-25T17:22:18.846Z,2.98
2019-05-25T17:24:47.907Z,2.62
2019-05-25T17:27:17.232Z,3.05
2019-05-25T17:29:46.322Z,3.00
2019-05-25T17:32:15.429Z,3.08
2019-05-25T17:34:45.528Z,2.87
2019-05-25T17:37:14.584Z,3.00
2019-05-25T17:39:43.618Z,2.80
2019-05-25T17:42:13.043Z,2.72
2019-05-25T17:44:42.122Z,2.60
2019-05-25T17:47:11.164Z,3.12
2019-05-25T17:49:40.520Z,3.02
2019-05-25T17:52:10.206Z,3.00
2019-05-25T17:54:39.233Z,2.60
2019-05-25T17:57:08.411Z,2.80
2019-05-25T17:59:37.452Z,3.30
2019-05-25T18:02:06.530Z,2.90
2019-05-25T18:04:35.610Z,3.22
2019-05-25T18:07:04.756Z,3.30
2019-05-25T18:09:33.850Z,3.10
2019-05-25T18:12:02.906Z,3.87
2019-05-25T18:14:32.435Z,3.40
2019-05-25T18:17:01.481Z,3.58
2019-05-25T18:19:30.503Z,3.72
2019-05-25T18:21:59.657Z,3.33
2019-05-25T18:24:28.697Z,4.10
2019-05-25T18:26:58.440Z,3.80
2019-05-25T18:29:27.462Z,4.03
2019-05-25T18:31:56.498Z,4.05
2019-05-25T18:34:25.496Z,4.78
2019-05-25T18:36:54.520Z,3.80
2019-05-25T18:39:23.569Z,5.15
2019-05-25T18:41:52.930Z,4.20
2019-05-25T18:44:21.968Z,4.95
2019-05-25T18:46:51.043Z,5.10
2019-05-25T18:49:20.182Z,4.95
2019-05-25T18:51:49.351Z,5.50
2019-05-25T18:54:18.338Z,5.37
2019-05-25T18:56:47.433Z,5.80
2019-05-25T18:59:16.531Z,5.10
2019-05-25T19:01:45.574Z,5.17
2019-05-25T19:04:14.619Z,5.50
2019-05-25T19:06:43.705Z,4.95
2019-05-25T19:09:12.683Z,4.50
2019-05-25T19:11:42.424Z,4.72
2019-05-25T19:14:11.445Z,5.00
2019-05-25T19:16:40.537Z,5.20
2019-05-25T19:19:09.593Z,4.95
2019-05-25T19:21:39.001Z,4.90
2019-05-25T19:24:08.010Z,5.35
2019-05-25T19:26:37.083Z,4.90
2019-05-25T19:29:06.191Z,4.83
2019-05-25T19:31:35.274Z,4.70
2019-05-25T19:34:04.377Z,5.22
2019-05-25T19:36:33.759Z,4.95
2019-05-25T19:39:03.866Z,5.35
2019-05-25T19:41:32.905Z,6.23
2019-05-25T19:44:02.694Z,6.47
2019-05-25T19:46:32.158Z,6.10
2019-05-25T19:49:01.873Z,6.30
2019-05-25T19:51:30.942Z,5.83
2019-05-25T19:54:00.001Z,6.20
2019-05-25T19:56:30.678Z,6.33
2019-05-25T19:59:00.154Z,6.50
2019-05-25T20:01:31.266Z,6.10
2019-05-25T20:04:00.285Z,6.70
2019-05-25T20:06:29.270Z,6.47
2019-05-25T20:08:58.313Z,6.30
2019-05-25T20:11:27.358Z,5.97
2019-05-25T20:13:56.374Z,6.77
2019-05-25T20:16:25.467Z,5.93
2019-05-25T20:18:55.372Z,6.20
2019-05-25T20:21:25.006Z,7.03
2019-05-25T20:23:54.218Z,7.40
2019-05-25T20:26:23.595Z,6.63
2019-05-25T20:28:52.638Z,8.10
2019-05-25T20:31:21.656Z,8.20
2019-05-25T20:33:50.692Z,7.93
2019-05-25T20:36:19.724Z,8.30
2019-05-25T20:38:48.721Z,8.87
2019-05-25T20:41:17.742Z,7.83
2019-05-25T20:43:46.737Z,7.60
2019-05-25T20:46:15.777Z,7.67
2019-05-25T20:48:45.107Z,7.30
2019-05-25T20:51:14.098Z,6.90
2019-05-25T20:53:43.142Z,7.30
2019-05-25T20:56:12.148Z,7.73
2019-05-25T20:58:41.174Z,7.27
2019-05-25T21:01:10.252Z,7.43
2019-05-25T21:03:39.241Z,7.70
2019-05-25T21:06:08.345Z,7.77
2019-05-25T21:08:37.378Z,7.80
2019-05-25T21:11:06.402Z,7.83
2019-05-25T21:13:35.793Z,8.30
2019-05-25T21:16:04.895Z,7.17
2019-05-25T21:18:33.949Z,8.07
2019-05-25T21:21:03.009Z,8.67
2019-05-25T21:23:32.138Z,8.33
2019-05-25T21:26:01.175Z,7.40
2019-05-25T21:28:30.874Z,8.67
2019-05-25T21:30:59.860Z,8.17
2019-05-25T21:33:29.501Z,6.67
2019-05-25T21:36:08.274Z,9.27
2019-05-25T21:38:29.286Z,9.30
2019-05-25T21:40:58.356Z,8.60
2019-05-25T21:43:27.364Z,9.27
2019-05-25T21:45:56.375Z,9.27
2019-05-25T21:48:25.458Z,9.70
2019-05-25T21:50:54.461Z,9.53
2019-05-25T21:53:23.478Z,10.00
2019-05-25T21:55:52.471Z,9.63
2019-05-25T21:58:21.892Z,9.47
2019-05-25T22:00:51.940Z,10.00
2019-05-25T22:03:21.270Z,9.73
2019-05-25T22:05:50.285Z,9.90
2019-05-25T22:08:19.610Z,10.37
2019-05-25T22:10:49.007Z,9.43
2019-05-25T22:13:27.758Z,9.77
2019-05-25T22:15:49.200Z,9.73
2019-05-25T22:18:18.254Z,10.40
2019-05-25T22:20:47.934Z,9.93
2019-05-25T22:23:16.980Z,10.13
2019-05-25T22:25:46.015Z,8.90
2019-05-25T22:28:15.028Z,9.60
2019-05-25T22:30:44.391Z,9.90
2019-05-25T22:33:13.421Z,9.40
2019-05-25T22:35:42.406Z,8.80
2019-05-25T22:38:11.448Z,9.23
2019-05-25T22:40:40.490Z,9.47
2019-05-25T22:43:09.501Z,9.43
2019-05-25T22:45:38.537Z,9.33
2019-05-25T22:48:07.621Z,9.47
2019-05-25T22:50:36.626Z,9.83
2019-05-25T22:53:06.945Z,9.20
2019-05-25T22:55:36.487Z,9.00
2019-05-25T22:58:05.875Z,9.10
2019-05-25T23:00:35.221Z,9.57
2019-05-25T23:03:04.269Z,9.47
2019-05-25T23:05:34.072Z,10.30
2019-05-25T23:08:03.084Z,9.73
2019-05-25T23:10:32.802Z,9.13
2019-05-25T23:13:01.923Z,9.13
2019-05-25T23:15:30.930Z,9.20
2019-05-25T23:18:00.626Z,9.73
2019-05-25T23:20:29.644Z,9.60
2019-05-25T23:22:58.663Z,9.67
2019-05-25T23:25:28.101Z,10.00
2019-05-25T23:27:57.158Z,9.33
2019-05-25T23:30:26.599Z,9.40
2019-05-25T23:32:55.646Z,9.73
2019-05-25T23:35:25.060Z,9.10
2019-05-25T23:37:54.062Z,9.47
2019-05-25T23:40:23.218Z,9.80
2019-05-25T23:42:52.258Z,9.13
2019-05-25T23:45:21.275Z,9.47
2019-05-25T23:47:50.622Z,8.13
2019-05-25T23:50:19.618Z,9.37
2019-05-25T23:52:48.682Z,9.93
2019-05-25T23:55:17.676Z,10.10
2019-05-25T23:57:46.673Z,9.30
